sensor_id;sensor_type;location;lat;lon;timestamp;P1;durP1;ratioP1;P2;durP2;ratioP2
22378;SDS011;11357;49.990;7.370;2024-01-07T00:01:35;48.87;;;16.43;;
22378;SDS011;11357;49.990;7.370;2024-01-07T00:04:01;47.93;;;17.30;;
22378;SDS011;11357;49.990;7.370;2024-01-07T00:06:27;34.93;;;14.70;;
22378;SDS011;11357;49.990;7.370;2024-01-07T00:08:52;59.03;;;23.23;;
22378;SDS011;11357;49.990;7.370;2024-01-07T00:11:18;37.07;;;15.17;;
22378;SDS011;11357;49.990;7.370;2024-01-07T00:13:44;36.37;;;14.67;;
22378;SDS011;11357;49.990;7.370;2024-01-07T00:16:11;256.20;;;98.93;;
22378;SDS011;11357;49.990;7.370;2024-01-07T00:18:36;42.00;;;15.97;;
22378;SDS011;11357;49.990;7.370;2024-01-07T00:21:02;38.87;;;20.63;;
22378;SDS011;11357;49.990;7.370;2024-01-07T00:23:28;84.50;;;27.00;;
22378;SDS011;11357;49.990;7.370;2024-01-07T00:25:54;126.40;;;52.17;;
22378;SDS011;11357;49.990;7.370;2024-01-07T00:28:20;57.73;;;18.10;;
22378;SDS011;11357;49.990;7.370;2024-01-07T00:30:46;110.83;;;20.50;;
22378;SDS011;11357;49.990;7.370;2024-01-07T00:33:11;64.63;;;18.70;;
22378;SDS011;11357;49.990;7.370;2024-01-07T00:35:37;280.27;;;80.60;;
22378;SDS011;11357;49.990;7.370;2024-01-07T00:38:03;149.83;;;23.80;;
22378;SDS011;11357;49.990;7.370;2024-01-07T00:40:29;600.00;;;133.67;;
22378;SDS011;11357;49.990;7.370;2024-01-07T00:42:54;331.57;;;42.27;;
22378;SDS011;11357;49.990;7.370;2024-01-07T00:45:20;202.93;;;30.67;;
22378;SDS011;11357;49.990;7.370;2024-01-07T00:47:46;754.43;;;131.90;;
22378;SDS011;11357;49.990;7.370;2024-01-07T00:50:12;172.10;;;24.83;;
22378;SDS011;11357;49.990;7.370;2024-01-07T00:52:38;251.90;;;27.97;;
22378;SDS011;11357;49.990;7.370;2024-01-07T00:55:06;407.43;;;55.53;;
22378;SDS011;11357;49.990;7.370;2024-01-07T00:57:32;401.27;;;90.20;;
22378;SDS011;11357;49.990;7.370;2024-01-07T00:59:58;555.43;;;99.43;;
22378;SDS011;11357;49.990;7.370;2024-01-07T01:02:25;158.30;;;23.17;;
22378;SDS011;11357;49.990;7.370;2024-01-07T01:04:50;231.87;;;25.77;;
22378;SDS011;11357;49.990;7.370;2024-01-07T01:07:16;579.80;;;110.63;;
22378;SDS011;11357;49.990;7.370;2024-01-07T01:09:42;224.87;;;26.13;;
22378;SDS011;11357;49.990;7.370;2024-01-07T01:12:08;483.27;;;92.03;;
22378;SDS011;11357;49.990;7.370;2024-01-07T01:14:33;210.20;;;42.03;;
22378;SDS011;11357;49.990;7.370;2024-01-07T01:16:59;168.77;;;38.90;;
22378;SDS011;11357;49.990;7.370;2024-01-07T01:19:25;115.03;;;22.23;;
22378;SDS011;11357;49.990;7.370;2024-01-07T01:21:50;198.83;;;42.03;;
22378;SDS011;11357;49.990;7.370;2024-01-07T01:24:16;203.23;;;35.07;;
22378;SDS011;11357;49.990;7.370;2024-01-07T01:26:42;81.97;;;18.87;;
22378;SDS011;11357;49.990;7.370;2024-01-07T01:29:07;1309.53;;;274.83;;
22378;SDS011;11357;49.990;7.370;2024-01-07T01:31:33;112.53;;;19.50;;
22378;SDS011;11357;49.990;7.370;2024-01-07T01:33:59;249.23;;;39.10;;
22378;SDS011;11357;49.990;7.370;2024-01-07T01:36:25;181.10;;;24.87;;
22378;SDS011;11357;49.990;7.370;2024-01-07T01:38:51;139.13;;;28.60;;
22378;SDS011;11357;49.990;7.370;2024-01-07T01:41:17;179.27;;;21.67;;
22378;SDS011;11357;49.990;7.370;2024-01-07T01:43:42;217.27;;;25.23;;
22378;SDS011;11357;49.990;7.370;2024-01-07T01:46:08;220.47;;;28.87;;
22378;SDS011;11357;49.990;7.370;2024-01-07T01:48:35;269.53;;;27.50;;
22378;SDS011;11357;49.990;7.370;2024-01-07T01:51:01;229.47;;;23.67;;
22378;SDS011;11357;49.990;7.370;2024-01-07T01:53:28;345.80;;;30.70;;
22378;SDS011;11357;49.990;7.370;2024-01-07T01:55:55;91.90;;;18.53;;
22378;SDS011;11357;49.990;7.370;2024-01-07T01:58:22;167.10;;;60.90;;
22378;SDS011;11357;49.990;7.370;2024-01-07T02:00:49;57.53;;;18.57;;
22378;SDS011;11357;49.990;7.370;2024-01-07T02:03:18;68.20;;;35.63;;
22378;SDS011;11357;49.990;7.370;2024-01-07T02:05:44;39.67;;;12.83;;
22378;SDS011;11357;49.990;7.370;2024-01-07T02:08:10;84.70;;;31.33;;
22378;SDS011;11357;49.990;7.370;2024-01-07T02:10:36;31.47;;;11.93;;
22378;SDS011;11357;49.990;7.370;2024-01-07T02:13:03;28.60;;;10.80;;
22378;SDS011;11357;49.990;7.370;2024-01-07T02:15:29;834.97;;;179.70;;
22378;SDS011;11357;49.990;7.370;2024-01-07T02:17:55;27.30;;;11.73;;
22378;SDS011;11357;49.990;7.370;2024-01-07T02:20:21;32.93;;;11.60;;
22378;SDS011;11357;49.990;7.370;2024-01-07T02:22:47;45.00;;;12.40;;
22378;SDS011;11357;49.990;7.370;2024-01-07T02:25:13;560.30;;;207.47;;
22378;SDS011;11357;49.990;7.370;2024-01-07T02:27:38;85.60;;;16.40;;
22378;SDS011;11357;49.990;7.370;2024-01-07T02:30:04;83.10;;;15.80;;
22378;SDS011;11357;49.990;7.370;2024-01-07T02:32:30;191.40;;;56.77;;
22378;SDS011;11357;49.990;7.370;2024-01-07T02:34:59;103.50;;;18.50;;
22378;SDS011;11357;49.990;7.370;2024-01-07T02:37:25;538.30;;;160.20;;
22378;SDS011;11357;49.990;7.370;2024-01-07T02:39:51;322.10;;;77.33;;
22378;SDS011;11357;49.990;7.370;2024-01-07T02:42:17;184.27;;;20.43;;
22378;SDS011;11357;49.990;7.370;2024-01-07T02:44:43;488.93;;;37.10;;
22378;SDS011;11357;49.990;7.370;2024-01-07T02:47:09;467.97;;;37.20;;
22378;SDS011;11357;49.990;7.370;2024-01-07T02:49:35;390.73;;;28.03;;
22378;SDS011;11357;49.990;7.370;2024-01-07T02:52:00;490.50;;;66.53;;
22378;SDS011;11357;49.990;7.370;2024-01-07T02:54:26;1146.57;;;207.07;;
22378;SDS011;11357;49.990;7.370;2024-01-07T02:56:52;572.33;;;42.57;;
22378;SDS011;11357;49.990;7.370;2024-01-07T02:59:17;595.03;;;55.93;;
22378;SDS011;11357;49.990;7.370;2024-01-07T03:01:43;485.03;;;36.13;;
22378;SDS011;11357;49.990;7.370;2024-01-07T03:04:13;910.23;;;242.97;;
22378;SDS011;11357;49.990;7.370;2024-01-07T03:06:40;583.13;;;45.97;;
22378;SDS011;11357;49.990;7.370;2024-01-07T03:09:06;627.23;;;100.07;;
22378;SDS011;11357;49.990;7.370;2024-01-07T03:11:32;501.20;;;62.47;;
22378;SDS011;11357;49.990;7.370;2024-01-07T03:13:58;334.67;;;26.93;;
22378;SDS011;11357;49.990;7.370;2024-01-07T03:16:25;397.50;;;36.03;;
22378;SDS011;11357;49.990;7.370;2024-01-07T03:18:51;443.20;;;34.03;;
22378;SDS011;11357;49.990;7.370;2024-01-07T03:21:21;323.53;;;30.83;;
22378;SDS011;11357;49.990;7.370;2024-01-07T03:23:48;252.43;;;27.50;;
22378;SDS011;11357;49.990;7.370;2024-01-07T03:26:15;197.67;;;102.47;;
22378;SDS011;11357;49.990;7.370;2024-01-07T03:28:41;111.90;;;22.00;;
22378;SDS011;11357;49.990;7.370;2024-01-07T03:31:08;91.73;;;17.20;;
22378;SDS011;11357;49.990;7.370;2024-01-07T03:33:36;107.47;;;18.40;;
22378;SDS011;11357;49.990;7.370;2024-01-07T03:36:06;101.10;;;18.63;;
22378;SDS011;11357;49.990;7.370;2024-01-07T03:38:33;109.20;;;30.50;;
22378;SDS011;11357;49.990;7.370;2024-01-07T03:40:59;112.70;;;19.60;;
22378;SDS011;11357;49.990;7.370;2024-01-07T03:43:25;101.40;;;18.47;;
22378;SDS011;11357;49.990;7.370;2024-01-07T03:45:51;110.03;;;19.47;;
22378;SDS011;11357;49.990;7.370;2024-01-07T03:48:17;101.80;;;20.13;;
22378;SDS011;11357;49.990;7.370;2024-01-07T03:50:42;96.67;;;23.23;;
22378;SDS011;11357;49.990;7.370;2024-01-07T03:53:08;409.47;;;128.47;;
22378;SDS011;11357;49.990;7.370;2024-01-07T03:55:34;52.53;;;15.03;;
22378;SDS011;11357;49.990;7.370;2024-01-07T03:58:00;99.10;;;33.07;;
22378;SDS011;11357;49.990;7.370;2024-01-07T04:00:26;67.67;;;16.67;;
22378;SDS011;11357;49.990;7.370;2024-01-07T04:02:51;110.20;;;35.03;;
22378;SDS011;11357;49.990;7.370;2024-01-07T04:05:17;63.90;;;16.87;;
22378;SDS011;11357;49.990;7.370;2024-01-07T04:07:43;55.17;;;15.70;;
22378;SDS011;11357;49.990;7.370;2024-01-07T04:10:09;113.50;;;53.30;;
22378;SDS011;11357;49.990;7.370;2024-01-07T04:12:36;178.63;;;100.00;;
22378;SDS011;11357;49.990;7.370;2024-01-07T04:15:02;61.10;;;15.33;;
22378;SDS011;11357;49.990;7.370;2024-01-07T04:17:28;88.43;;;44.47;;
22378;SDS011;11357;49.990;7.370;2024-01-07T04:19:54;464.17;;;149.10;;
22378;SDS011;11357;49.990;7.370;2024-01-07T04:22:20;81.37;;;17.43;;
22378;SDS011;11357;49.990;7.370;2024-01-07T04:24:46;69.77;;;23.83;;
22378;SDS011;11357;49.990;7.370;2024-01-07T04:27:11;167.70;;;74.90;;
22378;SDS011;11357;49.990;7.370;2024-01-07T04:29:37;79.57;;;15.80;;
22378;SDS011;11357;49.990;7.370;2024-01-07T04:32:03;75.23;;;16.93;;
22378;SDS011;11357;49.990;7.370;2024-01-07T04:34:29;74.67;;;15.83;;
22378;SDS011;11357;49.990;7.370;2024-01-07T04:36:55;95.10;;;39.60;;
22378;SDS011;11357;49.990;7.370;2024-01-07T04:39:21;62.27;;;15.10;;
22378;SDS011;11357;49.990;7.370;2024-01-07T04:41:46;90.43;;;20.57;;
22378;SDS011;11357;49.990;7.370;2024-01-07T04:44:12;521.00;;;156.53;;
22378;SDS011;11357;49.990;7.370;2024-01-07T04:46:38;419.63;;;209.10;;
22378;SDS011;11357;49.990;7.370;2024-01-07T04:49:05;126.47;;;44.33;;
22378;SDS011;11357;49.990;7.370;2024-01-07T04:51:34;74.47;;;14.67;;
22378;SDS011;11357;49.990;7.370;2024-01-07T04:54:01;126.57;;;71.50;;
22378;SDS011;11357;49.990;7.370;2024-01-07T04:56:27;75.83;;;16.27;;
22378;SDS011;11357;49.990;7.370;2024-01-07T04:58:53;155.10;;;40.47;;
22378;SDS011;11357;49.990;7.370;2024-01-07T05:01:18;94.70;;;33.97;;
22378;SDS011;11357;49.990;7.370;2024-01-07T05:03:44;79.23;;;17.73;;
22378;SDS011;11357;49.990;7.370;2024-01-07T05:06:10;77.70;;;23.23;;
22378;SDS011;11357;49.990;7.370;2024-01-07T05:08:36;212.17;;;103.13;;
22378;SDS011;11357;49.990;7.370;2024-01-07T05:11:03;80.60;;;15.77;;
22378;SDS011;11357;49.990;7.370;2024-01-07T05:13:29;337.67;;;95.17;;
22378;SDS011;11357;49.990;7.370;2024-01-07T05:15:55;75.60;;;15.60;;
22378;SDS011;11357;49.990;7.370;2024-01-07T05:18:21;72.57;;;15.40;;
22378;SDS011;11357;49.990;7.370;2024-01-07T05:20:48;65.40;;;15.60;;
22378;SDS011;11357;49.990;7.370;2024-01-07T05:23:14;471.63;;;137.23;;
22378;SDS011;11357;49.990;7.370;2024-01-07T05:25:42;101.30;;;21.23;;
22378;SDS011;11357;49.990;7.370;2024-01-07T05:28:11;94.67;;;17.50;;
22378;SDS011;11357;49.990;7.370;2024-01-07T05:30:38;69.37;;;15.47;;
22378;SDS011;11357;49.990;7.370;2024-01-07T05:33:04;75.90;;;15.97;;
22378;SDS011;11357;49.990;7.370;2024-01-07T05:35:30;64.67;;;14.83;;
22378;SDS011;11357;49.990;7.370;2024-01-07T05:37:56;56.60;;;23.63;;
22378;SDS011;11357;49.990;7.370;2024-01-07T05:40:22;66.00;;;15.43;;
22378;SDS011;11357;49.990;7.370;2024-01-07T05:42:48;57.90;;;15.30;;
22378;SDS011;11357;49.990;7.370;2024-01-07T05:45:14;51.23;;;14.17;;
22378;SDS011;11357;49.990;7.370;2024-01-07T05:47:40;56.03;;;15.63;;
22378;SDS011;11357;49.990;7.370;2024-01-07T05:50:06;91.27;;;31.03;;
22378;SDS011;11357;49.990;7.370;2024-01-07T05:52:32;58.43;;;31.67;;
22378;SDS011;11357;49.990;7.370;2024-01-07T05:54:58;38.40;;;13.17;;
22378;SDS011;11357;49.990;7.370;2024-01-07T05:57:24;39.93;;;13.63;;
22378;SDS011;11357;49.990;7.370;2024-01-07T05:59:50;1021.93;;;259.47;;
22378;SDS011;11357;49.990;7.370;2024-01-07T06:02:16;54.87;;;28.00;;
22378;SDS011;11357;49.990;7.370;2024-01-07T06:04:43;39.47;;;13.40;;
22378;SDS011;11357;49.990;7.370;2024-01-07T06:07:08;39.20;;;14.90;;
22378;SDS011;11357;49.990;7.370;2024-01-07T06:09:34;29.23;;;11.40;;
22378;SDS011;11357;49.990;7.370;2024-01-07T06:12:00;36.80;;;16.33;;
22378;SDS011;11357;49.990;7.370;2024-01-07T06:14:26;33.23;;;11.70;;
22378;SDS011;11357;49.990;7.370;2024-01-07T06:16:52;30.93;;;12.03;;
22378;SDS011;11357;49.990;7.370;2024-01-07T06:19:18;346.17;;;124.50;;
22378;SDS011;11357;49.990;7.370;2024-01-07T06:21:46;223.27;;;60.43;;
22378;SDS011;11357;49.990;7.370;2024-01-07T06:24:11;51.93;;;32.77;;
22378;SDS011;11357;49.990;7.370;2024-01-07T06:26:37;649.50;;;158.70;;
22378;SDS011;11357;49.990;7.370;2024-01-07T06:29:03;45.60;;;25.03;;
22378;SDS011;11357;49.990;7.370;2024-01-07T06:31:29;163.10;;;71.63;;
22378;SDS011;11357;49.990;7.370;2024-01-07T06:33:54;34.13;;;17.30;;
22378;SDS011;11357;49.990;7.370;2024-01-07T06:36:23;33.43;;;16.00;;
22378;SDS011;11357;49.990;7.370;2024-01-07T06:38:50;619.37;;;165.77;;
22378;SDS011;11357;49.990;7.370;2024-01-07T06:41:15;51.47;;;38.30;;
22378;SDS011;11357;49.990;7.370;2024-01-07T06:43:41;488.23;;;121.00;;
22378;SDS011;11357;49.990;7.370;2024-01-07T06:46:07;25.50;;;18.77;;
22378;SDS011;11357;49.990;7.370;2024-01-07T06:48:32;109.07;;;77.80;;
22378;SDS011;11357;49.990;7.370;2024-01-07T06:50:58;17.13;;;8.90;;
22378;SDS011;11357;49.990;7.370;2024-01-07T06:53:25;15.80;;;8.23;;
22378;SDS011;11357;49.990;7.370;2024-01-07T06:55:50;754.27;;;177.77;;
22378;SDS011;11357;49.990;7.370;2024-01-07T06:58:16;11.33;;;6.47;;
22378;SDS011;11357;49.990;7.370;2024-01-07T07:00:42;49.10;;;29.03;;
22378;SDS011;11357;49.990;7.370;2024-01-07T07:03:07;82.73;;;17.17;;
22378;SDS011;11357;49.990;7.370;2024-01-07T07:05:33;137.67;;;56.53;;
22378;SDS011;11357;49.990;7.370;2024-01-07T07:07:59;1353.93;;;227.20;;
22378;SDS011;11357;49.990;7.370;2024-01-07T07:10:26;636.70;;;199.17;;
22378;SDS011;11357;49.990;7.370;2024-01-07T07:12:52;22.37;;;18.10;;
22378;SDS011;11357;49.990;7.370;2024-01-07T07:15:17;10.90;;;6.10;;
22378;SDS011;11357;49.990;7.370;2024-01-07T07:17:43;267.27;;;111.20;;
22378;SDS011;11357;49.990;7.370;2024-01-07T07:20:09;33.30;;;19.57;;
22378;SDS011;11357;49.990;7.370;2024-01-07T07:22:36;17.30;;;7.57;;
22378;SDS011;11357;49.990;7.370;2024-01-07T07:25:01;15.00;;;7.87;;
22378;SDS011;11357;49.990;7.370;2024-01-07T07:27:27;13.70;;;7.60;;
22378;SDS011;11357;49.990;7.370;2024-01-07T07:29:53;48.43;;;28.97;;
22378;SDS011;11357;49.990;7.370;2024-01-07T07:32:19;59.17;;;26.43;;
22378;SDS011;11357;49.990;7.370;2024-01-07T07:34:45;481.17;;;122.17;;
22378;SDS011;11357;49.990;7.370;2024-01-07T07:37:12;441.50;;;122.90;;
22378;SDS011;11357;49.990;7.370;2024-01-07T07:39:38;15.20;;;7.00;;
22378;SDS011;11357;49.990;7.370;2024-01-07T07:42:03;15.80;;;7.80;;
22378;SDS011;11357;49.990;7.370;2024-01-07T07:44:29;34.30;;;20.67;;
22378;SDS011;11357;49.990;7.370;2024-01-07T07:46:55;23.03;;;9.00;;
22378;SDS011;11357;49.990;7.370;2024-01-07T07:49:21;25.80;;;8.63;;
22378;SDS011;11357;49.990;7.370;2024-01-07T07:51:46;72.83;;;26.07;;
22378;SDS011;11357;49.990;7.370;2024-01-07T07:54:12;116.13;;;27.43;;
22378;SDS011;11357;49.990;7.370;2024-01-07T07:56:38;85.23;;;13.10;;
22378;SDS011;11357;49.990;7.370;2024-01-07T07:59:03;157.23;;;31.07;;
22378;SDS011;11357;49.990;7.370;2024-01-07T08:01:29;579.47;;;106.90;;
22378;SDS011;11357;49.990;7.370;2024-01-07T08:03:55;487.77;;;55.37;;
22378;SDS011;11357;49.990;7.370;2024-01-07T08:06:21;472.43;;;94.47;;
22378;SDS011;11357;49.990;7.370;2024-01-07T08:08:47;663.33;;;110.07;;
22378;SDS011;11357;49.990;7.370;2024-01-07T08:11:12;1263.63;;;299.23;;
22378;SDS011;11357;49.990;7.370;2024-01-07T08:13:38;383.67;;;28.70;;
22378;SDS011;11357;49.990;7.370;2024-01-07T08:16:04;429.63;;;33.03;;
22378;SDS011;11357;49.990;7.370;2024-01-07T08:18:31;450.57;;;31.10;;
22378;SDS011;11357;49.990;7.370;2024-01-07T08:20:57;426.43;;;31.67;;
22378;SDS011;11357;49.990;7.370;2024-01-07T08:23:26;462.53;;;33.50;;
22378;SDS011;11357;49.990;7.370;2024-01-07T08:25:52;749.83;;;88.97;;
22378;SDS011;11357;49.990;7.370;2024-01-07T08:28:18;402.13;;;31.80;;
22378;SDS011;11357;49.990;7.370;2024-01-07T08:30:45;508.40;;;39.17;;
22378;SDS011;11357;49.990;7.370;2024-01-07T08:33:11;434.73;;;30.17;;
22378;SDS011;11357;49.990;7.370;2024-01-07T08:35:37;503.37;;;34.53;;
22378;SDS011;11357;49.990;7.370;2024-01-07T08:38:03;899.30;;;188.80;;
22378;SDS011;11357;49.990;7.370;2024-01-07T08:40:30;605.97;;;39.67;;
22378;SDS011;11357;49.990;7.370;2024-01-07T08:42:56;724.57;;;53.70;;
22378;SDS011;11357;49.990;7.370;2024-01-07T08:45:22;670.23;;;50.30;;
22378;SDS011;11357;49.990;7.370;2024-01-07T08:47:48;669.03;;;45.80;;
22378;SDS011;11357;49.990;7.370;2024-01-07T08:50:13;487.47;;;35.77;;
22378;SDS011;11357;49.990;7.370;2024-01-07T08:52:39;445.80;;;36.20;;
22378;SDS011;11357;49.990;7.370;2024-01-07T08:55:08;536.67;;;97.77;;
22378;SDS011;11357;49.990;7.370;2024-01-07T08:57:36;533.40;;;41.17;;
22378;SDS011;11357;49.990;7.370;2024-01-07T09:00:03;706.53;;;51.33;;
22378;SDS011;11357;49.990;7.370;2024-01-07T09:02:29;635.90;;;47.63;;
22378;SDS011;11357;49.990;7.370;2024-01-07T09:04:55;738.47;;;121.70;;
22378;SDS011;11357;49.990;7.370;2024-01-07T09:07:23;678.73;;;56.47;;
22378;SDS011;11357;49.990;7.370;2024-01-07T09:09:48;1314.33;;;210.30;;
22378;SDS011;11357;49.990;7.370;2024-01-07T09:12:14;657.07;;;99.00;;
22378;SDS011;11357;49.990;7.370;2024-01-07T09:14:40;697.47;;;46.37;;
22378;SDS011;11357;49.990;7.370;2024-01-07T09:17:05;732.10;;;52.93;;
22378;SDS011;11357;49.990;7.370;2024-01-07T09:19:31;694.53;;;67.43;;
22378;SDS011;11357;49.990;7.370;2024-01-07T09:21:57;830.00;;;99.97;;
22378;SDS011;11357;49.990;7.370;2024-01-07T09:24:23;1967.00;;;477.67;;
22378;SDS011;11357;49.990;7.370;2024-01-07T09:26:49;784.17;;;55.10;;
22378;SDS011;11357;49.990;7.370;2024-01-07T09:29:16;1136.40;;;177.57;;
22378;SDS011;11357;49.990;7.370;2024-01-07T09:31:42;717.70;;;56.13;;
22378;SDS011;11357;49.990;7.370;2024-01-07T09:34:08;803.63;;;72.27;;
22378;SDS011;11357;49.990;7.370;2024-01-07T09:36:33;709.70;;;231.33;;
22378;SDS011;11357;49.990;7.370;2024-01-07T09:39:00;671.10;;;50.03;;
22378;SDS011;11357;49.990;7.370;2024-01-07T09:41:26;838.60;;;247.07;;
22378;SDS011;11357;49.990;7.370;2024-01-07T09:43:52;439.13;;;40.60;;
22378;SDS011;11357;49.990;7.370;2024-01-07T09:46:18;449.20;;;34.27;;
22378;SDS011;11357;49.990;7.370;2024-01-07T09:48:44;316.13;;;49.33;;
22378;SDS011;11357;49.990;7.370;2024-01-07T09:51:10;512.93;;;79.23;;
22378;SDS011;11357;49.990;7.370;2024-01-07T09:53:38;388.90;;;33.33;;
22378;SDS011;11357;49.990;7.370;2024-01-07T09:56:12;387.63;;;34.90;;
22378;SDS011;11357;49.990;7.370;2024-01-07T09:58:52;448.83;;;34.17;;
22378;SDS011;11357;49.990;7.370;2024-01-07T10:01:18;526.70;;;63.73;;
22378;SDS011;11357;49.990;7.370;2024-01-07T10:03:44;416.37;;;33.23;;
22378;SDS011;11357;49.990;7.370;2024-01-07T10:06:11;445.17;;;53.03;;
22378;SDS011;11357;49.990;7.370;2024-01-07T10:08:38;567.10;;;53.00;;
22378;SDS011;11357;49.990;7.370;2024-01-07T10:11:03;492.37;;;55.23;;
22378;SDS011;11357;49.990;7.370;2024-01-07T10:13:30;571.67;;;42.60;;
22378;SDS011;11357;49.990;7.370;2024-01-07T10:15:56;643.57;;;96.03;;
22378;SDS011;11357;49.990;7.370;2024-01-07T10:18:22;614.90;;;46.90;;
22378;SDS011;11357;49.990;7.370;2024-01-07T10:20:48;1313.60;;;182.20;;
22378;SDS011;11357;49.990;7.370;2024-01-07T10:23:20;783.07;;;101.70;;
22378;SDS011;11357;49.990;7.370;2024-01-07T10:25:45;722.47;;;96.10;;
22378;SDS011;11357;49.990;7.370;2024-01-07T10:28:12;796.57;;;117.70;;
22378;SDS011;11357;49.990;7.370;2024-01-07T10:30:39;842.63;;;76.17;;
22378;SDS011;11357;49.990;7.370;2024-01-07T10:33:05;990.97;;;134.13;;
22378;SDS011;11357;49.990;7.370;2024-01-07T10:35:33;774.47;;;81.73;;
22378;SDS011;11357;49.990;7.370;2024-01-07T10:38:01;1999.90;;;418.27;;
22378;SDS011;11357;49.990;7.370;2024-01-07T10:40:27;672.07;;;127.13;;
22378;SDS011;11357;49.990;7.370;2024-01-07T10:42:54;703.33;;;60.23;;
22378;SDS011;11357;49.990;7.370;2024-01-07T10:45:21;997.23;;;136.17;;
22378;SDS011;11357;49.990;7.370;2024-01-07T10:47:51;872.10;;;75.03;;
22378;SDS011;11357;49.990;7.370;2024-01-07T10:50:20;822.17;;;71.23;;
22378;SDS011;11357;49.990;7.370;2024-01-07T10:52:50;854.27;;;76.37;;
22378;SDS011;11357;49.990;7.370;2024-01-07T10:55:21;910.53;;;111.33;;
22378;SDS011;11357;49.990;7.370;2024-01-07T10:57:51;1034.60;;;87.33;;
22378;SDS011;11357;49.990;7.370;2024-01-07T11:00:19;298.17;;;62.87;;
22378;SDS011;11357;49.990;7.370;2024-01-07T11:08:18;852.80;;;210.83;;
22378;SDS011;11357;49.990;7.370;2024-01-07T11:14:03;458.77;;;100.87;;
22378;SDS011;11357;49.990;7.370;2024-01-07T11:16:41;1196.57;;;217.20;;
22378;SDS011;11357;49.990;7.370;2024-01-07T11:19:12;1248.17;;;181.27;;
22378;SDS011;11357;49.990;7.370;2024-01-07T11:21:39;1314.27;;;146.80;;
22378;SDS011;11357;49.990;7.370;2024-01-07T11:24:05;1571.83;;;181.00;;
22378;SDS011;11357;49.990;7.370;2024-01-07T11:26:31;745.07;;;98.83;;
22378;SDS011;11357;49.990;7.370;2024-01-07T11:28:57;534.27;;;67.57;;
22378;SDS011;11357;49.990;7.370;2024-01-07T11:34:04;240.40;;;35.37;;
22378;SDS011;11357;49.990;7.370;2024-01-07T11:36:30;93.50;;;24.87;;
22378;SDS011;11357;49.990;7.370;2024-01-07T11:38:56;107.87;;;31.33;;
22378;SDS011;11357;49.990;7.370;2024-01-07T11:41:22;43.40;;;18.80;;
22378;SDS011;11357;49.990;7.370;2024-01-07T11:43:53;56.13;;;24.77;;
22378;SDS011;11357;49.990;7.370;2024-01-07T11:46:20;38.10;;;18.57;;
22378;SDS011;11357;49.990;7.370;2024-01-07T11:48:47;36.10;;;17.93;;
22378;SDS011;11357;49.990;7.370;2024-01-07T11:51:13;36.40;;;17.80;;
22378;SDS011;11357;49.990;7.370;2024-01-07T11:53:40;37.30;;;22.97;;
22378;SDS011;11357;49.990;7.370;2024-01-07T11:56:08;43.70;;;26.50;;
22378;SDS011;11357;49.990;7.370;2024-01-07T11:58:34;38.53;;;19.17;;
22378;SDS011;11357;49.990;7.370;2024-01-07T12:01:00;36.90;;;19.27;;
22378;SDS011;11357;49.990;7.370;2024-01-07T12:03:26;91.67;;;32.47;;
22378;SDS011;11357;49.990;7.370;2024-01-07T12:05:52;102.40;;;46.50;;
22378;SDS011;11357;49.990;7.370;2024-01-07T12:08:18;40.13;;;19.07;;
22378;SDS011;11357;49.990;7.370;2024-01-07T12:10:45;41.90;;;21.23;;
22378;SDS011;11357;49.990;7.370;2024-01-07T12:13:11;38.37;;;19.47;;
22378;SDS011;11357;49.990;7.370;2024-01-07T12:15:37;40.07;;;18.87;;
22378;SDS011;11357;49.990;7.370;2024-01-07T12:18:04;40.83;;;19.90;;
22378;SDS011;11357;49.990;7.370;2024-01-07T12:20:30;41.57;;;24.77;;
22378;SDS011;11357;49.990;7.370;2024-01-07T12:23:05;33.73;;;16.87;;
22378;SDS011;11357;49.990;7.370;2024-01-07T12:25:32;50.63;;;43.50;;
22378;SDS011;11357;49.990;7.370;2024-01-07T12:27:59;27.70;;;17.00;;
22378;SDS011;11357;49.990;7.370;2024-01-07T12:30:27;28.83;;;16.50;;
22378;SDS011;11357;49.990;7.370;2024-01-07T12:32:53;30.20;;;16.63;;
22378;SDS011;11357;49.990;7.370;2024-01-07T12:35:20;30.07;;;16.43;;
22378;SDS011;11357;49.990;7.370;2024-01-07T12:37:47;25.60;;;15.67;;
22378;SDS011;11357;49.990;7.370;2024-01-07T12:40:13;24.20;;;14.20;;
22378;SDS011;11357;49.990;7.370;2024-01-07T12:42:40;29.87;;;18.47;;
22378;SDS011;11357;49.990;7.370;2024-01-07T12:45:15;28.47;;;15.77;;
22378;SDS011;11357;49.990;7.370;2024-01-07T12:47:41;25.50;;;15.63;;
22378;SDS011;11357;49.990;7.370;2024-01-07T12:50:07;100.30;;;48.27;;
22378;SDS011;11357;49.990;7.370;2024-01-07T12:52:35;41.00;;;26.47;;
22378;SDS011;11357;49.990;7.370;2024-01-07T12:55:04;22.20;;;13.80;;
22378;SDS011;11357;49.990;7.370;2024-01-07T12:57:31;90.40;;;80.57;;
22378;SDS011;11357;49.990;7.370;2024-01-07T12:59:57;20.27;;;13.17;;
22378;SDS011;11357;49.990;7.370;2024-01-07T13:02:23;43.97;;;28.23;;
22378;SDS011;11357;49.990;7.370;2024-01-07T13:04:50;19.37;;;12.83;;
22378;SDS011;11357;49.990;7.370;2024-01-07T13:07:16;23.07;;;14.03;;
22378;SDS011;11357;49.990;7.370;2024-01-07T13:09:41;19.40;;;12.47;;
22378;SDS011;11357;49.990;7.370;2024-01-07T13:12:09;20.57;;;13.03;;
22378;SDS011;11357;49.990;7.370;2024-01-07T13:14:36;66.17;;;47.90;;
22378;SDS011;11357;49.990;7.370;2024-01-07T13:17:02;19.17;;;11.60;;
22378;SDS011;11357;49.990;7.370;2024-01-07T13:19:28;18.17;;;11.13;;
22378;SDS011;11357;49.990;7.370;2024-01-07T13:21:55;18.37;;;11.97;;
22378;SDS011;11357;49.990;7.370;2024-01-07T13:24:23;17.97;;;12.33;;
22378;SDS011;11357;49.990;7.370;2024-01-07T13:26:49;21.13;;;13.47;;
22378;SDS011;11357;49.990;7.370;2024-01-07T13:29:14;19.70;;;12.10;;
22378;SDS011;11357;49.990;7.370;2024-01-07T13:31:40;20.13;;;12.03;;
22378;SDS011;11357;49.990;7.370;2024-01-07T13:34:09;20.90;;;13.50;;
22378;SDS011;11357;49.990;7.370;2024-01-07T13:36:35;20.97;;;13.60;;
22378;SDS011;11357;49.990;7.370;2024-01-07T13:39:01;17.73;;;11.13;;
22378;SDS011;11357;49.990;7.370;2024-01-07T13:41:27;19.87;;;13.03;;
22378;SDS011;11357;49.990;7.370;2024-01-07T13:43:54;103.03;;;63.30;;
22378;SDS011;11357;49.990;7.370;2024-01-07T13:46:21;26.13;;;14.23;;
22378;SDS011;11357;49.990;7.370;2024-01-07T13:48:48;21.77;;;13.17;;
22378;SDS011;11357;49.990;7.370;2024-01-07T13:51:14;163.20;;;85.23;;
22378;SDS011;11357;49.990;7.370;2024-01-07T13:53:40;48.57;;;28.43;;
22378;SDS011;11357;49.990;7.370;2024-01-07T13:56:06;17.73;;;11.00;;
22378;SDS011;11357;49.990;7.370;2024-01-07T13:58:32;18.03;;;11.70;;
22378;SDS011;11357;49.990;7.370;2024-01-07T14:00:58;18.83;;;12.10;;
22378;SDS011;11357;49.990;7.370;2024-01-07T14:03:24;19.93;;;12.87;;
22378;SDS011;11357;49.990;7.370;2024-01-07T14:05:50;19.23;;;12.57;;
22378;SDS011;11357;49.990;7.370;2024-01-07T14:08:16;322.00;;;152.83;;
22378;SDS011;11357;49.990;7.370;2024-01-07T14:10:54;41.90;;;37.77;;
22378;SDS011;11357;49.990;7.370;2024-01-07T14:13:20;81.23;;;64.20;;
22378;SDS011;11357;49.990;7.370;2024-01-07T14:15:47;186.37;;;116.43;;
22378;SDS011;11357;49.990;7.370;2024-01-07T14:18:13;19.97;;;13.10;;
22378;SDS011;11357;49.990;7.370;2024-01-07T14:20:41;22.33;;;13.20;;